sensor_id;sensor_type;location;lat;lon;timestamp;pressure;altitude;pressure_sealevel;temperature;humidity
42761;BME280;31672;47.638;19.026;2023-09-18T00:02:34;100381.56;;;16.84;100.00
42761;BME280;31672;47.638;19.026;2023-09-18T00:07:38;100396.84;;;16.83;100.00
42761;BME280;31672;47.638;19.026;2023-09-18T00:12:42;100379.72;;;16.78;100.00
42761;BME280;31672;47.638;19.026;2023-09-18T00:17:45;100371.44;;;16.73;100.00
42761;BME280;31672;47.638;19.026;2023-09-18T00:22:49;100367.31;;;16.70;100.00
42761;BME280;31672;47.638;19.026;2023-09-18T00:27:53;100375.38;;;16.70;100.00
42761;BME280;31672;47.638;19.026;2023-09-18T00:32:56;100379.06;;;16.69;100.00
42761;BME280;31672;47.638;19.026;2023-09-18T00:38:00;100376.38;;;16.69;100.00
42761;BME280;31672;47.638;19.026;2023-09-18T00:43:08;100373.03;;;16.67;100.00
42761;BME280;31672;47.638;19.026;2023-09-18T00:48:15;100363.78;;;16.63;100.00
42761;BME280;31672;47.638;19.026;2023-09-18T00:53:22;100366.22;;;16.58;100.00
42761;BME280;31672;47.638;19.026;2023-09-18T00:58:27;100373.84;;;16.54;100.00
42761;BME280;31672;47.638;19.026;2023-09-18T01:03:31;100365.16;;;16.46;100.00
42761;BME280;31672;47.638;19.026;2023-09-18T01:08:36;100367.41;;;16.42;100.00
42761;BME280;31672;47.638;19.026;2023-09-18T01:13:56;100369.50;;;16.40;100.00
42761;BME280;31672;47.638;19.026;2023-09-18T01:19:02;100362.63;;;16.31;100.00
42761;BME280;31672;47.638;19.026;2023-09-18T01:24:07;100361.81;;;16.30;100.00
42761;BME280;31672;47.638;19.026;2023-09-18T01:29:10;100365.13;;;16.26;100.00
42761;BME280;31672;47.638;19.026;2023-09-18T01:34:16;100365.94;;;16.26;100.00
42761;BME280;31672;47.638;19.026;2023-09-18T01:39:21;100360.97;;;16.23;100.00
42761;BME280;31672;47.638;19.026;2023-09-18T01:44:25;100370.25;;;16.21;100.00
42761;BME280;31672;47.638;19.026;2023-09-18T01:49:32;100362.19;;;16.14;100.00
42761;BME280;31672;47.638;19.026;2023-09-18T01:54:36;100367.53;;;16.08;100.00
42761;BME280;31672;47.638;19.026;2023-09-18T01:59:40;100356.34;;;16.04;100.00
42761;BME280;31672;47.638;19.026;2023-09-18T02:04:46;100357.59;;;16.01;100.00
42761;BME280;31672;47.638;19.026;2023-09-18T02:10:10;100358.81;;;15.99;100.00
42761;BME280;31672;47.638;19.026;2023-09-18T02:15:16;100362.91;;;15.95;100.00
42761;BME280;31672;47.638;19.026;2023-09-18T02:20:20;100357.94;;;15.92;100.00
42761;BME280;31672;47.638;19.026;2023-09-18T02:25:23;100360.41;;;15.87;100.00
42761;BME280;31672;47.638;19.026;2023-09-18T02:30:27;100357.09;;;15.85;100.00
42761;BME280;31672;47.638;19.026;2023-09-18T02:35:31;100362.84;;;15.82;100.00
42761;BME280;31672;47.638;19.026;2023-09-18T02:40:35;100363.03;;;15.80;100.00
42761;BME280;31672;47.638;19.026;2023-09-18T02:45:40;100365.28;;;15.76;100.00
42761;BME280;31672;47.638;19.026;2023-09-18T02:50:44;100365.94;;;15.78;100.00
42761;BME280;31672;47.638;19.026;2023-09-18T02:55:53;100369.03;;;15.82;100.00
42761;BME280;31672;47.638;19.026;2023-09-18T03:00:58;100362.47;;;15.85;100.00
42761;BME280;31672;47.638;19.026;2023-09-18T03:06:04;100361.41;;;15.86;100.00
42761;BME280;31672;47.638;19.026;2023-09-18T03:11:13;100367.19;;;15.89;100.00
42761;BME280;31672;47.638;19.026;2023-09-18T03:16:17;100367.03;;;15.91;100.00
42761;BME280;31672;47.638;19.026;2023-09-18T03:21:20;100361.22;;;15.87;100.00
42761;BME280;31672;47.638;19.026;2023-09-18T03:26:24;100365.53;;;15.88;100.00
42761;BME280;31672;47.638;19.026;2023-09-18T03:31:28;100360.56;;;15.78;100.00
42761;BME280;31672;47.638;19.026;2023-09-18T03:36:32;100352.31;;;15.80;100.00
42761;BME280;31672;47.638;19.026;2023-09-18T03:41:36;100352.53;;;15.78;100.00
42761;BME280;31672;47.638;19.026;2023-09-18T03:46:40;100359.31;;;15.74;100.00
42761;BME280;31672;47.638;19.026;2023-09-18T03:51:43;100361.75;;;15.69;100.00
42761;BME280;31672;47.638;19.026;2023-09-18T03:56:48;100355.50;;;15.62;100.00
42761;BME280;31672;47.638;19.026;2023-09-18T04:01:51;100348.69;;;15.60;100.00
42761;BME280;31672;47.638;19.026;2023-09-18T04:06:56;100345.94;;;15.53;100.00
42761;BME280;31672;47.638;19.026;2023-09-18T04:12:01;100337.28;;;15.51;100.00
42761;BME280;31672;47.638;19.026;2023-09-18T04:17:05;100342.03;;;15.49;100.00
42761;BME280;31672;47.638;19.026;2023-09-18T04:22:09;100339.34;;;15.49;100.00
42761;BME280;31672;47.638;19.026;2023-09-18T04:27:12;100337.69;;;15.48;100.00
42761;BME280;31672;47.638;19.026;2023-09-18T04:32:16;100342.03;;;15.49;100.00
42761;BME280;31672;47.638;19.026;2023-09-18T04:37:19;100338.31;;;15.50;100.00
42761;BME280;31672;47.638;19.026;2023-09-18T04:42:23;100342.63;;;15.51;100.00
42761;BME280;31672;47.638;19.026;2023-09-18T04:47:26;100341.59;;;15.52;100.00
42761;BME280;31672;47.638;19.026;2023-09-18T04:52:30;100339.59;;;15.54;100.00
42761;BME280;31672;47.638;19.026;2023-09-18T04:57:34;100341.84;;;15.57;100.00
42761;BME280;31672;47.638;19.026;2023-09-18T05:02:39;100339.63;;;15.61;100.00
42761;BME280;31672;47.638;19.026;2023-09-18T05:07:44;100329.78;;;15.68;100.00
42761;BME280;31672;47.638;19.026;2023-09-18T05:12:48;100338.09;;;15.79;100.00
42761;BME280;31672;47.638;19.026;2023-09-18T05:17:57;100328.66;;;15.84;100.00
42761;BME280;31672;47.638;19.026;2023-09-18T05:23:02;100336.09;;;15.95;100.00
42761;BME280;31672;47.638;19.026;2023-09-18T05:28:05;100339.66;;;16.02;100.00
42761;BME280;31672;47.638;19.026;2023-09-18T05:33:09;100340.09;;;16.12;100.00
42761;BME280;31672;47.638;19.026;2023-09-18T05:38:14;100344.25;;;16.21;100.00
42761;BME280;31672;47.638;19.026;2023-09-18T05:43:17;100347.19;;;16.33;100.00
42761;BME280;31672;47.638;19.026;2023-09-18T05:48:21;100330.31;;;16.46;100.00
42761;BME280;31672;47.638;19.026;2023-09-18T05:53:25;100329.94;;;16.62;100.00
42761;BME280;31672;47.638;19.026;2023-09-18T05:58:32;100321.91;;;16.75;100.00
42761;BME280;31672;47.638;19.026;2023-09-18T06:03:36;100317.16;;;16.91;100.00
42761;BME280;31672;47.638;19.026;2023-09-18T06:08:39;100315.94;;;17.06;100.00
42761;BME280;31672;47.638;19.026;2023-09-18T06:13:43;100317.78;;;17.26;100.00
42761;BME280;31672;47.638;19.026;2023-09-18T06:18:47;100306.19;;;17.38;100.00
42761;BME280;31672;47.638;19.026;2023-09-18T06:23:50;100315.84;;;17.59;100.00
42761;BME280;31672;47.638;19.026;2023-09-18T06:28:55;100313.16;;;17.73;100.00
42761;BME280;31672;47.638;19.026;2023-09-18T06:33:59;100305.44;;;17.89;100.00
42761;BME280;31672;47.638;19.026;2023-09-18T06:39:03;100299.59;;;18.06;100.00
42761;BME280;31672;47.638;19.026;2023-09-18T06:44:09;100291.69;;;18.17;100.00
42761;BME280;31672;47.638;19.026;2023-09-18T06:49:13;100293.03;;;18.33;100.00
42761;BME280;31672;47.638;19.026;2023-09-18T06:54:16;100302.69;;;18.48;99.65
42761;BME280;31672;47.638;19.026;2023-09-18T06:59:20;100293.88;;;18.65;99.11
42761;BME280;31672;47.638;19.026;2023-09-18T07:04:24;100285.25;;;18.82;97.98
42761;BME280;31672;47.638;19.026;2023-09-18T07:09:28;100288.44;;;18.97;96.83
42761;BME280;31672;47.638;19.026;2023-09-18T07:14:31;100291.25;;;19.09;94.47
42761;BME280;31672;47.638;19.026;2023-09-18T07:19:35;100274.50;;;19.25;93.96
42761;BME280;31672;47.638;19.026;2023-09-18T07:24:39;100287.16;;;19.43;91.62
42761;BME280;31672;47.638;19.026;2023-09-18T07:29:45;100283.09;;;19.59;90.27
42761;BME280;31672;47.638;19.026;2023-09-18T07:34:49;100270.81;;;19.81;89.15
42761;BME280;31672;47.638;19.026;2023-09-18T07:39:53;100282.75;;;20.03;87.71
42761;BME280;31672;47.638;19.026;2023-09-18T07:44:57;100270.88;;;20.23;85.86
42761;BME280;31672;47.638;19.026;2023-09-18T07:50:01;100271.69;;;20.53;84.74
42761;BME280;31672;47.638;19.026;2023-09-18T07:55:06;100272.31;;;20.79;82.82
42761;BME280;31672;47.638;19.026;2023-09-18T08:00:10;100268.44;;;20.98;80.44
42761;BME280;31672;47.638;19.026;2023-09-18T08:05:19;100265.41;;;21.06;80.11
42761;BME280;31672;47.638;19.026;2023-09-18T08:10:23;100252.72;;;21.19;78.05
42761;BME280;31672;47.638;19.026;2023-09-18T08:15:27;100243.56;;;21.43;78.60
42761;BME280;31672;47.638;19.026;2023-09-18T08:20:32;100238.31;;;21.65;77.22
42761;BME280;31672;47.638;19.026;2023-09-18T08:25:36;100223.88;;;21.88;76.35
42761;BME280;31672;47.638;19.026;2023-09-18T08:30:40;100222.38;;;22.21;75.63
42761;BME280;31672;47.638;19.026;2023-09-18T08:35:44;100222.25;;;22.44;74.30
42761;BME280;31672;47.638;19.026;2023-09-18T08:40:54;100215.69;;;22.74;72.07
42761;BME280;31672;47.638;19.026;2023-09-18T08:45:59;100224.69;;;22.96;71.41
42761;BME280;31672;47.638;19.026;2023-09-18T08:51:08;100213.00;;;23.12;69.46
42761;BME280;31672;47.638;19.026;2023-09-18T08:56:13;100216.81;;;23.33;68.31
42761;BME280;31672;47.638;19.026;2023-09-18T09:01:18;100209.13;;;23.47;67.13
42761;BME280;31672;47.638;19.026;2023-09-18T09:06:23;100206.63;;;23.62;66.34
42761;BME280;31672;47.638;19.026;2023-09-18T09:11:27;100214.72;;;23.84;65.79
42761;BME280;31672;47.638;19.026;2023-09-18T09:16:30;100216.88;;;24.09;65.48
42761;BME280;31672;47.638;19.026;2023-09-18T09:21:42;100209.25;;;24.33;63.53
42761;BME280;31672;47.638;19.026;2023-09-18T09:26:58;100201.31;;;24.53;63.05
42761;BME280;31672;47.638;19.026;2023-09-18T09:32:16;100205.03;;;24.79;62.25
42761;BME280;31672;47.638;19.026;2023-09-18T09:37:29;100207.00;;;24.94;61.50
42761;BME280;31672;47.638;19.026;2023-09-18T09:42:42;100201.19;;;25.18;60.25
42761;BME280;31672;47.638;19.026;2023-09-18T09:47:46;100180.88;;;25.35;59.43
42761;BME280;31672;47.638;19.026;2023-09-18T09:52:52;100185.00;;;25.48;58.72
42761;BME280;31672;47.638;19.026;2023-09-18T09:58:04;100169.03;;;25.67;57.88
42761;BME280;31672;47.638;19.026;2023-09-18T10:03:10;100154.41;;;25.94;57.48
42761;BME280;31672;47.638;19.026;2023-09-18T10:08:21;100137.25;;;26.13;56.12
42761;BME280;31672;47.638;19.026;2023-09-18T10:13:55;100131.81;;;26.34;55.53
42761;BME280;31672;47.638;19.026;2023-09-18T10:19:30;100137.78;;;26.61;55.28
42761;BME280;31672;47.638;19.026;2023-09-18T10:24:40;100130.41;;;26.67;53.63
42761;BME280;31672;47.638;19.026;2023-09-18T10:29:49;100113.75;;;26.79;53.92
42761;BME280;31672;47.638;19.026;2023-09-18T10:34:55;100112.34;;;26.97;53.01
42761;BME280;31672;47.638;19.026;2023-09-18T10:40:00;100094.63;;;26.99;53.05
42761;BME280;31672;47.638;19.026;2023-09-18T10:45:05;100086.97;;;27.11;52.87
42761;BME280;31672;47.638;19.026;2023-09-18T10:50:10;100079.28;;;27.18;52.14
42761;BME280;31672;47.638;19.026;2023-09-18T10:55:14;100080.63;;;27.21;51.23
42761;BME280;31672;47.638;19.026;2023-09-18T11:00:18;100070.22;;;27.28;50.33
42761;BME280;31672;47.638;19.026;2023-09-18T11:06:06;100069.09;;;27.34;50.57
42761;BME280;31672;47.638;19.026;2023-09-18T11:11:12;100078.00;;;27.50;50.41
42761;BME280;31672;47.638;19.026;2023-09-18T11:16:34;100063.38;;;27.75;49.13
42761;BME280;31672;47.638;19.026;2023-09-18T11:21:42;100050.03;;;28.08;49.03
42761;BME280;31672;47.638;19.026;2023-09-18T11:26:48;100049.94;;;28.13;48.13
42761;BME280;31672;47.638;19.026;2023-09-18T11:31:56;100052.06;;;28.21;47.42
42761;BME280;31672;47.638;19.026;2023-09-18T11:37:21;100041.00;;;28.36;48.03
42761;BME280;31672;47.638;19.026;2023-09-18T11:42:25;100039.41;;;28.30;48.02
42761;BME280;31672;47.638;19.026;2023-09-18T11:47:30;100031.47;;;28.34;47.49
42761;BME280;31672;47.638;19.026;2023-09-18T11:52:36;100023.00;;;28.30;47.50
42761;BME280;31672;47.638;19.026;2023-09-18T11:57:40;100009.72;;;28.18;47.53
42761;BME280;31672;47.638;19.026;2023-09-18T12:02:48;100001.50;;;27.94;47.69
42761;BME280;31672;47.638;19.026;2023-09-18T12:07:52;99990.09;;;27.87;48.80
42761;BME280;31672;47.638;19.026;2023-09-18T12:12:58;99994.19;;;27.90;48.58
42761;BME280;31672;47.638;19.026;2023-09-18T12:18:06;99990.09;;;27.87;48.07
42761;BME280;31672;47.638;19.026;2023-09-18T12:23:11;99991.31;;;27.76;48.19
42761;BME280;31672;47.638;19.026;2023-09-18T12:28:15;99986.78;;;27.61;47.78
42761;BME280;31672;47.638;19.026;2023-09-18T12:33:20;99995.88;;;27.46;48.50
42761;BME280;31672;47.638;19.026;2023-09-18T12:38:24;99981.28;;;27.27;48.62
42761;BME280;31672;47.638;19.026;2023-09-18T12:43:39;99972.41;;;27.11;48.28
42761;BME280;31672;47.638;19.026;2023-09-18T12:48:44;99964.19;;;27.16;48.39
42761;BME280;31672;47.638;19.026;2023-09-18T12:54:00;99959.78;;;27.20;47.81
42761;BME280;31672;47.638;19.026;2023-09-18T12:59:04;99960.41;;;27.12;47.72
42761;BME280;31672;47.638;19.026;2023-09-18T13:04:18;99945.41;;;27.05;48.49
42761;BME280;31672;47.638;19.026;2023-09-18T13:09:23;99935.06;;;27.02;48.65
42761;BME280;31672;47.638;19.026;2023-09-18T13:14:27;99936.34;;;27.19;48.60
42761;BME280;31672;47.638;19.026;2023-09-18T13:19:30;99924.50;;;27.34;46.60
42761;BME280;31672;47.638;19.026;2023-09-18T13:24:37;99922.97;;;27.52;46.54
42761;BME280;31672;47.638;19.026;2023-09-18T13:29:41;99913.72;;;27.53;46.22
42761;BME280;31672;47.638;19.026;2023-09-18T13:34:45;99913.72;;;27.53;46.75
42761;BME280;31672;47.638;19.026;2023-09-18T13:39:50;99885.00;;;27.56;46.94
42761;BME280;31672;47.638;19.026;2023-09-18T13:44:54;99884.97;;;27.61;46.86
42761;BME280;31672;47.638;19.026;2023-09-18T13:50:00;99874.50;;;27.73;45.66
42761;BME280;31672;47.638;19.026;2023-09-18T13:55:04;99869.56;;;27.75;45.29
42761;BME280;31672;47.638;19.026;2023-09-18T14:00:09;99866.78;;;27.80;45.51
42761;BME280;31672;47.638;19.026;2023-09-18T14:05:15;99865.16;;;27.79;45.30
42761;BME280;31672;47.638;19.026;2023-09-18T14:10:21;99857.38;;;27.62;45.42
42761;BME280;31672;47.638;19.026;2023-09-18T14:15:26;99854.06;;;27.41;46.26
42761;BME280;31672;47.638;19.026;2023-09-18T14:20:30;99844.91;;;27.27;45.92
42761;BME280;31672;47.638;19.026;2023-09-18T14:25:33;99835.94;;;27.21;46.49
42761;BME280;31672;47.638;19.026;2023-09-18T14:30:37;99825.31;;;27.20;46.84
42761;BME280;31672;47.638;19.026;2023-09-18T14:35:41;99817.78;;;27.12;46.13
42761;BME280;31672;47.638;19.026;2023-09-18T14:40:45;99828.72;;;27.07;46.84
42761;BME280;31672;47.638;19.026;2023-09-18T14:45:50;99830.88;;;27.05;47.13
42761;BME280;31672;47.638;19.026;2023-09-18T14:50:56;99824.38;;;27.01;47.80
42761;BME280;31672;47.638;19.026;2023-09-18T14:56:01;99823.56;;;27.00;47.12
42761;BME280;31672;47.638;19.026;2023-09-18T15:01:04;99818.97;;;26.95;46.96
42761;BME280;31672;47.638;19.026;2023-09-18T15:06:10;99819.53;;;26.92;47.05
42761;BME280;31672;47.638;19.026;2023-09-18T15:11:14;99813.81;;;26.94;47.50
42761;BME280;31672;47.638;19.026;2023-09-18T15:16:21;99805.34;;;26.95;48.04
42761;BME280;31672;47.638;19.026;2023-09-18T15:21:24;99799.88;;;26.95;47.18
42761;BME280;31672;47.638;19.026;2023-09-18T15:26:28;99793.91;;;26.93;48.09
42761;BME280;31672;47.638;19.026;2023-09-18T15:31:32;99781.91;;;26.94;47.86
42761;BME280;31672;47.638;19.026;2023-09-18T15:36:35;99769.69;;;26.87;47.98
42761;BME280;31672;47.638;19.026;2023-09-18T15:41:39;99760.75;;;26.81;48.55
42761;BME280;31672;47.638;19.026;2023-09-18T15:46:43;99752.06;;;26.74;48.54
42761;BME280;31672;47.638;19.026;2023-09-18T15:51:47;99739.53;;;26.73;49.07
42761;BME280;31672;47.638;19.026;2023-09-18T15:56:51;99743.41;;;26.67;49.09
42761;BME280;31672;47.638;19.026;2023-09-18T16:01:54;99745.66;;;26.60;49.05
42761;BME280;31672;47.638;19.026;2023-09-18T16:06:58;99739.19;;;26.51;49.48
42761;BME280;31672;47.638;19.026;2023-09-18T16:12:02;99734.34;;;26.42;49.29
42761;BME280;31672;47.638;19.026;2023-09-18T16:17:06;99734.38;;;26.32;49.66
42761;BME280;31672;47.638;19.026;2023-09-18T16:22:10;99729.28;;;26.21;49.67
42761;BME280;31672;47.638;19.026;2023-09-18T16:27:14;99724.72;;;26.11;50.10
42761;BME280;31672;47.638;19.026;2023-09-18T16:32:21;99711.47;;;25.99;50.34
42761;BME280;31672;47.638;19.026;2023-09-18T16:37:24;99702.00;;;25.86;50.51
42761;BME280;31672;47.638;19.026;2023-09-18T16:42:28;99699.31;;;25.71;51.56
42761;BME280;31672;47.638;19.026;2023-09-18T16:47:33;99698.31;;;25.57;52.68
42761;BME280;31672;47.638;19.026;2023-09-18T16:52:40;99696.50;;;25.37;53.36
42761;BME280;31672;47.638;19.026;2023-09-18T16:57:49;99698.44;;;25.16;54.05
42761;BME280;31672;47.638;19.026;2023-09-18T17:02:54;99697.09;;;24.98;54.68
42761;BME280;31672;47.638;19.026;2023-09-18T17:07:58;99689.81;;;24.83;54.90
42761;BME280;31672;47.638;19.026;2023-09-18T17:13:01;99695.78;;;24.70;55.47
42761;BME280;31672;47.638;19.026;2023-09-18T17:18:07;99686.03;;;24.54;55.82
42761;BME280;31672;47.638;19.026;2023-09-18T17:23:11;99683.28;;;24.39;56.46
42761;BME280;31672;47.638;19.026;2023-09-18T17:28:15;99682.72;;;24.21;57.27
42761;BME280;31672;47.638;19.026;2023-09-18T17:33:19;99688.38;;;24.04;57.95
42761;BME280;31672;47.638;19.026;2023-09-18T17:38:24;99688.63;;;23.93;58.23
42761;BME280;31672;47.638;19.026;2023-09-18T17:43:28;99689.94;;;23.80;59.07
42761;BME280;31672;47.638;19.026;2023-09-18T17:48:32;99686.97;;;23.71;58.80
42761;BME280;31672;47.638;19.026;2023-09-18T17:53:36;99687.75;;;23.67;59.16
42761;BME280;31672;47.638;19.026;2023-09-18T17:58:40;99682.06;;;23.63;59.31
42761;BME280;31672;47.638;19.026;2023-09-18T18:03:46;99680.38;;;23.57;59.33
42761;BME280;31672;47.638;19.026;2023-09-18T18:08:53;99680.88;;;23.49;60.22
42761;BME280;31672;47.638;19.026;2023-09-18T18:13:58;99685.19;;;23.40;60.47
42761;BME280;31672;47.638;19.026;2023-09-18T18:19:01;99681.34;;;23.31;60.94
42761;BME280;31672;47.638;19.026;2023-09-18T18:24:07;99679.16;;;23.28;60.76
42761;BME280;31672;47.638;19.026;2023-09-18T18:29:12;99682.94;;;23.27;60.45
42761;BME280;31672;47.638;19.026;2023-09-18T18:34:21;99679.16;;;23.33;60.68
42761;BME280;31672;47.638;19.026;2023-09-18T18:39:28;99679.44;;;23.31;60.66
42761;BME280;31672;47.638;19.026;2023-09-18T18:44:33;99665.06;;;23.31;59.75
42761;BME280;31672;47.638;19.026;2023-09-18T18:49:37;99656.94;;;23.31;60.03
42761;BME280;31672;47.638;19.026;2023-09-18T18:54:41;99661.53;;;23.30;60.08
42761;BME280;31672;47.638;19.026;2023-09-18T18:59:47;99663.97;;;23.27;60.45
42761;BME280;31672;47.638;19.026;2023-09-18T19:04:50;99659.38;;;23.32;58.51
42761;BME280;31672;47.638;19.026;2023-09-18T19:09:55;99649.94;;;23.40;57.37
42761;BME280;31672;47.638;19.026;2023-09-18T19:15:02;99651.34;;;23.53;56.35
42761;BME280;31672;47.638;19.026;2023-09-18T19:20:10;99639.47;;;23.64;54.76
42761;BME280;31672;47.638;19.026;2023-09-18T19:25:14;99631.63;;;23.77;54.46
42761;BME280;31672;47.638;19.026;2023-09-18T19:30:18;99627.84;;;23.84;53.25
42761;BME280;31672;47.638;19.026;2023-09-18T19:35:22;99640.34;;;23.90;53.21
42761;BME280;31672;47.638;19.026;2023-09-18T19:40:26;99640.63;;;23.93;52.80
42761;BME280;31672;47.638;19.026;2023-09-18T19:45:35;99619.44;;;23.95;52.97
42761;BME280;31672;47.638;19.026;2023-09-18T19:50:38;99624.31;;;23.98;53.19
42761;BME280;31672;47.638;19.026;2023-09-18T19:55:42;99619.16;;;23.97;52.80
42761;BME280;31672;47.638;19.026;2023-09-18T20:00:51;99601.25;;;23.91;52.71
42761;BME280;31672;47.638;19.026;2023-09-18T20:05:55;99609.13;;;23.87;53.15
42761;BME280;31672;47.638;19.026;2023-09-18T20:11:00;99608.56;;;23.80;53.86
42761;BME280;31672;47.638;19.026;2023-09-18T20:16:06;99616.44;;;23.71;53.67
42761;BME280;31672;47.638;19.026;2023-09-18T20:21:11;99613.13;;;23.59;54.68
42761;BME280;31672;47.638;19.026;2023-09-18T20:26:15;99624.19;;;23.47;55.40
42761;BME280;31672;47.638;19.026;2023-09-18T20:31:19;99622.50;;;23.31;55.88
42761;BME280;31672;47.638;19.026;2023-09-18T20:36:25;99618.41;;;23.18;56.31
42761;BME280;31672;47.638;19.026;2023-09-18T20:41:33;99612.69;;;23.10;56.53
42761;BME280;31672;47.638;19.026;2023-09-18T20:46:37;99600.44;;;23.02;56.83
42761;BME280;31672;47.638;19.026;2023-09-18T20:51:41;99604.50;;;23.00;56.89
42761;BME280;31672;47.638;19.026;2023-09-18T20:56:45;99600.94;;;22.94;57.08
42761;BME280;31672;47.638;19.026;2023-09-18T21:01:49;99593.31;;;22.86;57.72
42761;BME280;31672;47.638;19.026;2023-09-18T21:06:53;99600.28;;;22.77;58.56
42761;BME280;31672;47.638;19.026;2023-09-18T21:11:57;99599.66;;;22.64;58.93
42761;BME280;31672;47.638;19.026;2023-09-18T21:17:01;99600.16;;;22.56;59.62
42761;BME280;31672;47.638;19.026;2023-09-18T21:22:06;99594.94;;;22.44;62.33
42761;BME280;31672;47.638;19.026;2023-09-18T21:27:10;99593.47;;;22.27;65.21
42761;BME280;31672;47.638;19.026;2023-09-18T21:32:14;99598.47;;;22.13;67.12
42761;BME280;31672;47.638;19.026;2023-09-18T21:37:20;99594.50;;;21.94;69.98
42761;BME280;31672;47.638;19.026;2023-09-18T21:42:26;99604.91;;;21.53;73.22
42761;BME280;31672;47.638;19.026;2023-09-18T21:47:29;99611.38;;;21.08;78.39
42761;BME280;31672;47.638;19.026;2023-09-18T21:52:36;99604.19;;;20.75;80.40
42761;BME280;31672;47.638;19.026;2023-09-18T21:57:39;99603.81;;;20.49;82.78
42761;BME280;31672;47.638;19.026;2023-09-18T22:02:43;99602.41;;;20.30;85.08
42761;BME280;31672;47.638;19.026;2023-09-18T22:07:47;99606.53;;;20.16;86.96
42761;BME280;31672;47.638;19.026;2023-09-18T22:12:50;99612.00;;;20.04;88.23
42761;BME280;31672;47.638;19.026;2023-09-18T22:17:54;99597.50;;;19.93;89.72
42761;BME280;31672;47.638;19.026;2023-09-18T22:22:58;99599.03;;;19.89;92.16
42761;BME280;31672;47.638;19.026;2023-09-18T22:28:07;99590.13;;;19.89;93.10
42761;BME280;31672;47.638;19.026;2023-09-18T22:33:11;99585.75;;;19.99;91.52
42761;BME280;31672;47.638;19.026;2023-09-18T22:55:52;99577.78;;;20.77;82.62
42761;BME280;31672;47.638;19.026;2023-09-18T23:00:59;99559.94;;;20.98;80.28
42761;BME280;31672;47.638;19.026;2023-09-18T23:06:06;99562.06;;;21.18;77.64
42761;BME280;31672;47.638;19.026;2023-09-18T23:11:11;99552.53;;;21.32;76.53
42761;BME280;31672;47.638;19.026;2023-09-18T23:16:16;99557.25;;;21.47;74.93
42761;BME280;31672;47.638;19.026;2023-09-18T23:21:21;99549.81;;;21.59;73.99
42761;BME280;31672;47.638;19.026;2023-09-18T23:27:01;99541.25;;;21.67;73.37
42761;BME280;31672;47.638;19.026;2023-09-18T23:32:52;99550.78;;;21.75;72.17
42761;BME280;31672;47.638;19.026;2023-09-18T23:38:03;99536.78;;;21.78;71.67
42761;BME280;31672;47.638;19.026;2023-09-18T23:43:08;99539.50;;;21.83;71.57
42761;BME280;31672;47.638;19.026;2023-09-18T23:48:17;99535.75;;;21.84;71.12
42761;BME280;31672;47.638;19.026;2023-09-18T23:53:22;99544.41;;;21.86;70.71
42761;BME280;31672;47.638;19.026;2023-09-18T23:58:28;99539.31;;;21.89;70.72
